Saturday, November 01, 2014
10:35 UTC
  |  Log In   |  Register Free
Airport Search:

Pearson Field Airport
(KVUO)

Pearson Field Airport Diagram
No Airport Diagram Available

FAA data valid effective September 18, 2014 - November 13, 2014 (unless otherwise noted).

 
 
 
 
 
 
 
 
 
 
 
 
 
 

Current Aviation Weather for Pearson Field Airport (KVUO)

The most recent METAR observation for KVUO was updated at: 1018
METAR Summary (Translated METAR)
KVUO
010953Z AUTO 04003KT 6SM BR OVC003 07/06 A2984 RMK AO2 SLP106 T00720061
KPDX
010957Z 01003KT 1/2SM R10R/P6000FT OVC002 07/07 A2985 RMK AO2 SFC VIS 10 T00720072
(3.1 nm SE from KVUO)
KTTD
010953Z AUTO 17003KT 10SM OVC007 09/08 A2983 RMK AO2 SLP102 T00890078
(11.5 nm SE from KVUO)
TAF Summary (Translated TAF)
KPDX
(3.1 nm SE from KVUO)
010851Z 0109/0206 VRB03KT 5SM BR BKN005 FM011100 VRB03KT 1/2SM FG VV002 FM011700 00000KT 1SM BR OVC004 FM011800 VRB03KT 3SM BR BKN008 FM012000 32003KT P6SM VCSH SCT040 BKN250
KTTD
(11.5 nm SE from KVUO)
010535Z 0106/0206 11003KT 1/2SM FG VV002 FM011600 VRB03KT 1SM BR OVC004 FM011900 VRB03KT 3SM BR BKN008 FM012000 32003KT P6SM VCSH SCT040 BKN250
  Airport Weather Conditions for KVUO

 Current Weather at VUO
45° F
Fog/Mist
Northeast winds at 3.5 mph
VUO NOAA Radar

Pressure: 29.84 in
Humidity: 93%
Wind: Northeast at 3.5 MPH (3 KT)
Dew Point: 43.0°F
Visibility: 6.00 mi


Airport Weather Forecast for KVUO

Translated METAR and TAF for KVUO
Translated METAR for KVUO (1030 UTC 01 November 2014)
found at http://aviationweather.gov/adds/metars/
 
METAR text: KVUO 011019Z AUTO 08003KT 1 1/4SM BR OVC002 07/06 A2984 RMK AO2 T00670061
Conditions at: KVUO (VANCOUVER , WA, US) observed 1019 UTC 01 November 2014
Temperature: 6.7°C (44°F)
Dewpoint: 6.1°C (43°F) [RH = 96%]
Pressure (altimeter): 29.84 inches Hg (1010.6 mb)
Winds: from the E (80 degrees) at 3 MPH (3 knots; 1.6 m/s)
Visibility: 1.25 miles (2.01 km)
Ceiling: 200 feet AGL
Clouds: overcast cloud deck at 200 feet AGL
Weather: BR  (mist)
Translated TAF for KVUO

There is no translated TAF available for this airport

Find All Airport Services Find A Hotel Find A Rental Car Find A Golf Course Find A Restaurant $100 Hamburger



FBO's on the Field
FBO Company Facility Photos Services Transportation Aviation Fuel Prices: Prices include tax
Catering Weather Repair Courtesy Rental Type 100LL JetA JetA+ MOGAS 8087
 
Aero Maintenance Inc

This FBO has not yet been rated
FS:AirBP
Last Updated: Sep-25
Login to update fuel prices
SS:
Contact Aero Maintenance IncMore FBO Information
 
Add another FBO Facility Photos Catering Weather Repair Courtesy Rental Type 100LL JetA JetA+ MOGAS 8087
Services Transportation Aviation Fuel Prices: Prices include tax


model-print
model-print
model-print
model-print